KAZO/AZO METAR and TAF weather

Enter ICAO airport designator
Station Type Date Time Source
KAZO METAR 2019/02/23 16:53 UTC NOAA

KAZO 231653Z 12009G17KT 10SM BKN110 05/M04 A3001 RMK AO2 SLP170 T00501039


Station Type Date Time Source
KAZO Decoded METAR 2019/02/23 16:53 UTC NOAA

KALAMAZOO/BATTLE CREEK AIRPORT, MI, United States (KAZO) 42-14N 085-33W 272M
Feb 23, 2019 - 11:53 AM EST / 2019.02.23 1653 UTC
Wind: from the ESE (120 degrees) at 10 MPH (9 KT) gusting to 20 MPH (17 KT):0
Visibility: 10 mile(s):0
Sky conditions: mostly cloudy
Temperature: 41.0 F (5.0 C)
Dew Point: 25.0 F (-3.9 C)
Relative Humidity: 52%
Pressure (altimeter): 30.01 in. Hg (1016 hPa)
ob: KAZO 231653Z 12009G17KT 10SM BKN110 05/M04 A3001 RMK AO2 SLP170 T00501039
cycle: 17

Station Type Date Time Source
KAZO TAF 2019/02/23 12:52 UTC NOAA

TAF KAZO 231150Z 2312/2412 11010KT P6SM OVC080
FM231500 11010KT P6SM VCSH OVC050
FM232000 13010KT P6SM VCSH OVC015
FM232300 12010KT 6SM -SHRA OVC008
FM240100 12012KT 3SM -SHRA BR VCTS OVC003CB
FM240300 13013KT 1 1/2SM -SHRA BR VCTS OVC003CB WS020/17040KT
FM240500 16014G32KT 1SM -SHRA BR VCTS OVC003CB WS020/17050KT
FM240700 18013G35KT 2SM -SHRA BR OVC008 WS020/20050KT
FM241000 22015G29KT 4SM -SHRA BR OVC020 WS020/22045KT


Example: see airport list